13:43
Airports
History
Links
Donate
Help keep this website running!
PayPal
Bitcoin
This page is community maintained. The information is intended for PC simulator navigation or reference.
Always use approved charts for navigation.
ETSE
Erding AFB
Erding AFB (ETSE)
Bockhorn, Bayern, Germany (85461)
(C)
Lat/Lng:48° 19' 21.72" N / 11° 56' 59.22" E
48.322701 / 11.949783
Elevation:1515'ft / 462mMSL
ID / ICAO:ETSE
Runways:1
Longest:08-26
Concrete 2,511m / 8,237ft
Controlled:Yes
METAR08:20 GMT 2014-12-30
Altimeter: 28.91
Visibility: 1.0 statute miles
Wind: 13 knots (from 270°)
Temp: 1°c / 34°f
Humidity: 86.5%

METAR: ETSE 300820Z 27013G23KT 1600 SHSNGS FEW006 BKN023 01/M01 Q0979 REGS YLO

(Powered by phpweather)
Airport Radio Frequencies
Tower: 122.1
Approach: 120.77
Nearby VORs <50NM
Nearby NDBs
Runway 08 / 26
Dimensions:2510.6 x 34.1m 8237' x 112'ft
Surface:Concrete
Edge Lights:Medium intensity
Runway 08 [A]Runway 26 [B]
Heading:078°TH 258°TH
Lat:
Lng:
48° 19' 13.33"N
11° 55' 59.34"E
48° 19' 30.12"N
11° 57' 59.1"E
User Notes and Comments
48° 19' 21.72" N / 11° 56' 59.22" E
Distance To
Airport ID:
Nearby Airports
(C) Muenchen Franz-Josef Strauss 7.8 NM
EDDM ( WX ) WNW 285°
(C) HAMM Lippewiesen 13.6 NM
EDLH NNE 16°
(U) Vogtareuth 28.6 NM
EDNV SSE 155°
(U) FURSTENFELDBRUCK 32.4 NM
ETSF ( WX ) WSW 255°
(C) Ingolstadt Manching 33.1 NM
ETSI ( WX ) NW 325°
(C) Oberpfaffenhofen 34.9 NM
EDMO ( WX ) WSW 241°
(U) EGGENFELDEN 35.8 NM
EDME E 81°
VFR Chart
Flight Planning at SkyVector.com